createdAt,value
2018-08-08T00:00:32.569Z,3.00
2018-08-08T00:03:02.161Z,3.37
2018-08-08T00:05:31.925Z,4.57
2018-08-08T00:08:01.534Z,4.87
2018-08-08T00:10:31.202Z,2.60
2018-08-08T00:13:00.800Z,3.97
2018-08-08T00:15:30.496Z,9.27
2018-08-08T00:18:00.145Z,4.77
2018-08-08T00:20:29.752Z,6.70
2018-08-08T00:22:59.321Z,6.20
2018-08-08T00:25:28.940Z,22.53
2018-08-08T00:27:58.540Z,4.87
2018-08-08T00:30:28.092Z,5.73
2018-08-08T00:32:57.654Z,5.00
2018-08-08T00:35:27.237Z,3.10
2018-08-08T00:37:56.806Z,4.80
2018-08-08T00:40:26.372Z,3.43
2018-08-08T00:42:56.412Z,3.37
2018-08-08T00:45:26.021Z,2.80
2018-08-08T00:47:55.584Z,14.80
2018-08-08T00:50:25.537Z,5.90
2018-08-08T00:52:55.084Z,9.67
2018-08-08T00:55:24.712Z,2.60
2018-08-08T00:57:54.280Z,4.43
2018-08-08T01:00:23.949Z,5.67
2018-08-08T01:02:53.543Z,3.53
2018-08-08T01:05:23.489Z,6.93
2018-08-08T01:07:53.096Z,8.53
2018-08-08T01:10:22.718Z,5.27
2018-08-08T01:12:52.382Z,2.77
2018-08-08T01:15:21.978Z,2.63
2018-08-08T01:17:51.613Z,14.37
2018-08-08T01:20:21.247Z,3.33
2018-08-08T01:22:51.034Z,16.80
2018-08-08T01:25:20.808Z,5.47
2018-08-08T01:27:50.864Z,4.60
2018-08-08T01:30:21.001Z,5.10
2018-08-08T01:32:50.577Z,6.77
2018-08-08T01:35:20.321Z,3.23
2018-08-08T01:37:49.942Z,5.40
2018-08-08T01:40:19.865Z,5.20
2018-08-08T01:42:49.463Z,5.47
2018-08-08T01:45:19.195Z,4.63
2018-08-08T01:47:48.780Z,4.10
2018-08-08T01:50:18.456Z,12.90
2018-08-08T01:52:48.101Z,3.30
2018-08-08T01:55:24.344Z,4.30
2018-08-08T01:57:54.089Z,5.47
2018-08-08T02:00:23.673Z,11.70
2018-08-08T02:02:53.285Z,4.90
2018-08-08T02:05:22.889Z,7.80
2018-08-08T02:07:52.602Z,22.57
2018-08-08T02:10:23.704Z,4.23
2018-08-08T02:12:53.469Z,3.40
2018-08-08T02:15:23.069Z,3.30
2018-08-08T02:17:53.076Z,10.20
2018-08-08T02:20:22.721Z,5.10
2018-08-08T02:22:52.326Z,3.37
2018-08-08T02:25:22.017Z,10.10
2018-08-08T02:27:51.642Z,6.27
2018-08-08T02:30:23.175Z,4.00
2018-08-08T02:32:53.585Z,4.70
2018-08-08T02:35:23.351Z,9.77
2018-08-08T02:37:53.146Z,3.97
2018-08-08T02:40:22.797Z,4.03
2018-08-08T02:42:52.400Z,3.83
2018-08-08T02:45:22.008Z,3.70
2018-08-08T02:47:51.594Z,5.50
2018-08-08T02:50:22.053Z,4.67
2018-08-08T02:52:51.897Z,4.83
2018-08-08T02:55:21.525Z,8.50
2018-08-08T02:57:51.108Z,2.90
2018-08-08T03:00:21.535Z,16.33
2018-08-08T03:02:51.142Z,7.57
2018-08-08T03:05:20.787Z,9.13
2018-08-08T03:07:50.442Z,8.00
2018-08-08T03:10:20.116Z,10.00
2018-08-08T03:12:49.753Z,6.80
2018-08-08T03:15:20.705Z,4.47
2018-08-08T03:17:50.297Z,9.50
2018-08-08T03:20:19.921Z,5.83
2018-08-08T03:22:49.502Z,7.73
2018-08-08T03:25:19.218Z,3.27
2018-08-08T03:27:48.852Z,6.23
2018-08-08T03:30:21.371Z,12.93
2018-08-08T03:32:51.439Z,26.07
2018-08-08T03:35:21.609Z,13.80
2018-08-08T03:37:51.386Z,3.70
2018-08-08T03:40:21.008Z,5.83
2018-08-08T03:42:50.670Z,4.70
2018-08-08T03:45:20.280Z,4.50
2018-08-08T03:47:49.865Z,10.80
2018-08-08T03:50:19.483Z,3.57
2018-08-08T03:52:49.119Z,6.20
2018-08-08T03:55:18.760Z,4.00
2018-08-08T03:57:48.459Z,8.57
2018-08-08T04:00:21.028Z,6.03
2018-08-08T04:02:51.177Z,3.67
2018-08-08T04:05:20.842Z,4.90
2018-08-08T04:07:50.434Z,3.83
2018-08-08T04:10:20.417Z,7.53
2018-08-08T04:12:50.060Z,5.70
2018-08-08T04:15:20.618Z,13.63
2018-08-08T04:17:50.260Z,6.80
2018-08-08T04:20:19.960Z,8.77
2018-08-08T04:22:49.933Z,11.87
2018-08-08T04:25:19.551Z,23.93
2018-08-08T04:27:49.136Z,17.83
2018-08-08T04:30:20.827Z,8.90
2018-08-08T04:32:50.475Z,8.90
2018-08-08T04:35:20.148Z,4.70
2018-08-08T04:37:49.769Z,8.17
2018-08-08T04:40:20.750Z,13.97
2018-08-08T04:42:51.061Z,7.10
2018-08-08T04:45:20.696Z,12.60
2018-08-08T04:47:50.343Z,19.07
2018-08-08T04:50:20.159Z,5.30
2018-08-08T04:52:49.833Z,7.97
2018-08-08T04:55:19.525Z,5.57
2018-08-08T04:57:49.213Z,4.87
2018-08-08T05:00:19.231Z,13.07
2018-08-08T05:02:48.810Z,19.33
2018-08-08T05:05:18.681Z,11.50
2018-08-08T05:07:48.389Z,4.73
2018-08-08T05:10:17.937Z,10.40
2018-08-08T05:12:47.736Z,9.00
2018-08-08T05:15:18.657Z,9.83
2018-08-08T05:17:49.279Z,14.97
2018-08-08T05:20:19.066Z,26.13
2018-08-08T05:22:49.387Z,27.00
2018-08-08T05:25:19.112Z,20.53
2018-08-08T05:27:48.810Z,22.33
2018-08-08T05:30:20.442Z,13.10
2018-08-08T05:32:50.407Z,24.10
2018-08-08T05:35:20.902Z,38.50
2018-08-08T05:37:50.977Z,33.60
2018-08-08T05:40:23.534Z,15.07
2018-08-08T05:42:54.565Z,33.23
2018-08-08T05:45:25.457Z,29.93
2018-08-08T05:47:56.534Z,15.27
2018-08-08T05:50:26.172Z,7.60
2018-08-08T05:52:55.797Z,15.23
2018-08-08T05:55:25.805Z,9.87
2018-08-08T05:57:55.459Z,15.50
2018-08-08T06:00:28.703Z,6.30
2018-08-08T06:02:58.581Z,8.57
2018-08-08T06:05:28.334Z,7.97
2018-08-08T06:07:57.985Z,11.97
2018-08-08T06:10:27.649Z,15.30
2018-08-08T06:12:57.334Z,8.27
2018-08-08T06:15:27.081Z,12.13
2018-08-08T06:17:56.713Z,4.13
2018-08-08T06:20:26.384Z,7.30
2018-08-08T06:22:55.997Z,26.00
2018-08-08T06:25:25.669Z,6.53
2018-08-08T06:27:55.329Z,19.73
2018-08-08T06:30:27.224Z,12.50
2018-08-08T06:32:57.842Z,4.03
2018-08-08T06:35:28.847Z,10.83
2018-08-08T06:37:58.957Z,4.13
2018-08-08T06:40:28.595Z,3.97
2018-08-08T06:42:58.288Z,8.57
2018-08-08T06:45:28.229Z,8.60
2018-08-08T06:47:57.870Z,19.70
2018-08-08T06:50:27.841Z,7.17
2018-08-08T06:52:57.493Z,8.67
2018-08-08T06:55:27.145Z,5.67
2018-08-08T06:57:56.797Z,11.10
2018-08-08T07:00:29.015Z,9.63
2018-08-08T07:02:59.040Z,12.73
2018-08-08T07:05:28.634Z,22.70
2018-08-08T07:07:58.609Z,12.70
2018-08-08T07:10:28.319Z,13.73
2018-08-08T07:12:57.936Z,11.80
2018-08-08T07:15:27.524Z,11.00
2018-08-08T07:17:57.557Z,11.23
2018-08-08T07:20:27.192Z,22.93
2018-08-08T07:22:56.944Z,11.30
2018-08-08T07:25:26.947Z,5.43
2018-08-08T07:27:56.542Z,6.47
2018-08-08T07:30:26.205Z,8.37
2018-08-08T07:32:55.820Z,5.03
2018-08-08T07:35:25.414Z,8.63
2018-08-08T07:37:55.129Z,10.03
2018-08-08T07:40:25.108Z,9.57
2018-08-08T07:42:54.765Z,7.80
2018-08-08T07:45:26.925Z,8.93
2018-08-08T07:47:56.646Z,24.50
2018-08-08T07:50:26.441Z,33.13
2018-08-08T07:52:56.157Z,5.37
2018-08-08T07:55:25.841Z,31.80
2018-08-08T07:57:55.578Z,9.50
2018-08-08T08:00:29.605Z,2.87
2018-08-08T08:03:00.557Z,8.55
2018-08-08T08:05:30.241Z,4.55
2018-08-08T08:07:59.977Z,10.90
2018-08-08T08:10:29.697Z,5.20
2018-08-08T08:12:59.477Z,15.23
2018-08-08T08:15:29.166Z,5.72
2018-08-08T08:17:58.890Z,6.72
2018-08-08T08:20:28.868Z,7.92
2018-08-08T08:22:58.510Z,4.97
2018-08-08T08:25:28.225Z,3.50
2018-08-08T08:27:57.872Z,9.80
2018-08-08T08:30:27.549Z,6.33
2018-08-08T08:32:57.349Z,9.00
2018-08-08T08:35:27.329Z,3.67
2018-08-08T08:37:57.087Z,13.50
2018-08-08T08:40:26.697Z,7.15
2018-08-08T08:42:56.554Z,12.30
2018-08-08T08:45:26.298Z,3.02
2018-08-08T08:47:56.017Z,5.33
2018-08-08T08:50:25.872Z,2.05
2018-08-08T08:52:55.461Z,2.12
2018-08-08T08:55:25.257Z,2.25
2018-08-08T08:57:54.957Z,6.53
2018-08-08T09:00:24.646Z,4.35
2018-08-08T09:02:54.389Z,4.92
2018-08-08T09:05:24.107Z,7.90
2018-08-08T09:07:53.770Z,36.38
2018-08-08T09:10:23.544Z,18.42
2018-08-08T09:12:53.230Z,9.48
2018-08-08T09:15:23.106Z,4.55
2018-08-08T09:17:52.774Z,3.00
2018-08-08T09:20:22.482Z,9.40
2018-08-08T09:22:52.202Z,4.78
2018-08-08T09:25:21.946Z,6.10
2018-08-08T09:27:51.593Z,4.72
2018-08-08T09:30:21.361Z,5.55
2018-08-08T09:32:50.999Z,2.60
2018-08-08T09:35:20.630Z,13.35
2018-08-08T09:37:50.295Z,7.92
2018-08-08T09:40:19.980Z,3.10
2018-08-08T09:42:49.671Z,4.53
2018-08-08T09:45:19.378Z,10.08
2018-08-08T09:47:49.137Z,3.40
2018-08-08T09:50:18.941Z,8.33
2018-08-08T09:52:48.614Z,2.58
2018-08-08T09:55:18.281Z,9.93
2018-08-08T09:57:47.905Z,4.75
2018-08-08T10:00:22.554Z,2.47
2018-08-08T10:03:57.374Z,9.65
2018-08-08T10:06:26.978Z,8.63
2018-08-08T10:08:56.634Z,2.60
2018-08-08T10:11:26.237Z,7.87
2018-08-08T10:13:55.867Z,6.05
2018-08-08T10:16:25.613Z,8.73
2018-08-08T10:18:55.337Z,26.40
2018-08-08T10:21:24.971Z,2.60
2018-08-08T10:23:54.630Z,2.50
2018-08-08T10:26:24.613Z,4.67
2018-08-08T10:28:54.256Z,7.22
2018-08-08T10:31:23.891Z,5.50
2018-08-08T10:33:54.011Z,2.52
2018-08-08T10:36:23.762Z,1.80
2018-08-08T10:38:53.456Z,5.63
2018-08-08T10:41:23.137Z,3.67
2018-08-08T10:43:52.757Z,5.63
2018-08-08T10:46:22.441Z,8.60
2018-08-08T10:48:52.400Z,2.00
2018-08-08T10:51:22.057Z,2.47
2018-08-08T10:53:51.802Z,5.30
2018-08-08T10:56:21.544Z,11.23
2018-08-08T10:58:51.394Z,2.33
2018-08-08T11:01:21.049Z,6.00
2018-08-08T11:03:50.774Z,2.43
2018-08-08T11:06:20.461Z,2.20
2018-08-08T11:08:50.145Z,3.00
2018-08-08T11:11:19.817Z,7.03
2018-08-08T11:13:49.478Z,4.50
2018-08-08T11:16:19.176Z,7.13
2018-08-08T11:18:48.938Z,6.60
2018-08-08T11:21:18.576Z,18.17
2018-08-08T11:23:48.218Z,7.20
2018-08-08T11:26:17.903Z,7.60
2018-08-08T11:28:47.543Z,3.07
2018-08-08T11:31:17.232Z,2.90
2018-08-08T11:33:47.174Z,4.10
2018-08-08T11:36:16.791Z,7.13
2018-08-08T11:38:46.526Z,9.03
2018-08-08T11:41:16.122Z,3.30
2018-08-08T11:43:45.786Z,3.33
2018-08-08T11:46:15.417Z,5.03
2018-08-08T11:48:45.018Z,3.70
2018-08-08T11:51:15.034Z,3.03
2018-08-08T11:53:44.805Z,3.20
2018-08-08T11:56:14.545Z,3.20
2018-08-08T11:58:44.197Z,3.07
2018-08-08T12:01:13.862Z,4.40
2018-08-08T12:03:43.455Z,2.93
2018-08-08T12:06:13.163Z,5.37
2018-08-08T12:08:43.318Z,12.23
2018-08-08T12:11:12.929Z,4.60
2018-08-08T12:13:42.565Z,3.60
2018-08-08T12:16:12.245Z,5.80
2018-08-08T12:18:41.920Z,6.73
2018-08-08T12:21:11.623Z,3.83
2018-08-08T12:23:41.462Z,7.80
2018-08-08T12:26:11.085Z,17.90
2018-08-08T12:28:40.827Z,3.47
2018-08-08T12:31:10.506Z,3.87
2018-08-08T12:33:40.162Z,4.57
2018-08-08T12:36:11.032Z,6.73
2018-08-08T12:38:40.610Z,12.87
2018-08-08T12:41:10.252Z,5.50
2018-08-08T12:43:39.905Z,3.60
2018-08-08T12:46:09.583Z,6.50
2018-08-08T12:48:39.193Z,3.53
2018-08-08T12:51:09.445Z,5.77
2018-08-08T12:53:39.037Z,3.83
2018-08-08T12:56:08.706Z,4.40
2018-08-08T12:58:44.884Z,4.13
2018-08-08T13:01:14.516Z,4.10
2018-08-08T13:03:44.210Z,15.77
2018-08-08T13:06:13.844Z,3.37
2018-08-08T13:08:43.483Z,8.70
2018-08-08T13:11:13.115Z,3.60
2018-08-08T13:13:42.816Z,4.03
2018-08-08T13:16:12.461Z,6.20
2018-08-08T13:18:42.072Z,3.67
2018-08-08T13:21:11.725Z,3.73
2018-08-08T13:23:41.450Z,6.17
2018-08-08T13:26:11.448Z,4.83
2018-08-08T13:28:41.270Z,8.10
2018-08-08T13:31:12.554Z,9.33
2018-08-08T13:33:42.547Z,3.10
2018-08-08T13:36:12.119Z,3.10
2018-08-08T13:38:41.726Z,13.20
2018-08-08T13:41:11.440Z,3.30
2018-08-08T13:43:41.130Z,4.10
2018-08-08T13:46:10.813Z,13.50
2018-08-08T13:48:40.517Z,3.70
2018-08-08T13:51:10.264Z,11.97
2018-08-08T13:53:40.067Z,11.60
2018-08-08T13:56:09.735Z,4.30
2018-08-08T13:58:39.482Z,4.57
2018-08-08T14:01:09.176Z,2.70
2018-08-08T14:03:38.940Z,5.30
2018-08-08T14:06:08.482Z,4.03
2018-08-08T14:08:38.118Z,6.30
2018-08-08T14:11:07.799Z,4.40
2018-08-08T14:13:37.435Z,2.93
2018-08-08T14:16:07.347Z,7.50
2018-08-08T14:18:37.306Z,6.83
2018-08-08T14:21:06.944Z,6.47
2018-08-08T14:23:36.579Z,4.83
2018-08-08T14:26:06.709Z,3.50
2018-08-08T14:28:36.323Z,3.77
2018-08-08T14:31:05.934Z,3.27
2018-08-08T14:33:35.632Z,3.20
2018-08-08T14:36:05.302Z,4.80
2018-08-08T14:38:34.965Z,2.97
2018-08-08T14:41:04.755Z,5.67
2018-08-08T14:43:34.340Z,5.10
2018-08-08T14:46:03.968Z,3.93
2018-08-08T14:48:33.678Z,2.63
2018-08-08T14:51:03.916Z,3.47
2018-08-08T14:53:34.330Z,3.07
2018-08-08T14:56:04.964Z,2.97
2018-08-08T14:58:34.596Z,2.93
2018-08-08T15:01:04.282Z,20.30
2018-08-08T15:03:34.063Z,14.87
2018-08-08T15:06:03.855Z,6.80
2018-08-08T15:08:33.816Z,15.07
2018-08-08T15:11:03.443Z,18.40
2018-08-08T15:13:33.164Z,9.43
2018-08-08T15:16:02.803Z,4.20
2018-08-08T15:18:32.454Z,21.83
2018-08-08T15:21:02.125Z,21.57
2018-08-08T15:23:31.894Z,12.60
2018-08-08T15:26:01.588Z,24.93
2018-08-08T15:28:31.309Z,10.33
2018-08-08T15:31:01.019Z,14.53
2018-08-08T15:33:30.719Z,9.07
2018-08-08T15:36:00.514Z,27.07
2018-08-08T15:38:30.251Z,11.33
2018-08-08T15:40:59.933Z,11.87
2018-08-08T15:43:29.702Z,11.70
2018-08-08T15:45:59.378Z,8.00
2018-08-08T15:48:29.080Z,7.07
2018-08-08T15:50:58.772Z,5.00
2018-08-08T15:53:29.638Z,4.87
2018-08-08T15:55:59.318Z,10.67
2018-08-08T15:58:28.942Z,6.73
2018-08-08T16:00:58.942Z,3.70
2018-08-08T16:03:28.653Z,5.93
2018-08-08T16:05:58.273Z,4.97
2018-08-08T16:08:27.953Z,4.50
2018-08-08T16:10:57.605Z,8.43
2018-08-08T16:13:27.401Z,5.40
2018-08-08T16:15:57.109Z,12.87
2018-08-08T16:18:26.882Z,4.70
2018-08-08T16:20:57.016Z,10.83
2018-08-08T16:23:26.658Z,5.57
2018-08-08T16:25:56.385Z,10.03
2018-08-08T16:28:26.042Z,4.67
2018-08-08T16:30:55.789Z,6.17
2018-08-08T16:33:25.488Z,6.40
2018-08-08T16:35:55.223Z,11.23
2018-08-08T16:38:25.417Z,6.10
2018-08-08T16:40:55.082Z,5.83
2018-08-08T16:43:24.763Z,12.07
2018-08-08T16:45:54.550Z,6.37
2018-08-08T16:48:24.167Z,4.47
2018-08-08T16:50:53.786Z,6.10
2018-08-08T16:53:23.462Z,8.20
2018-08-08T16:55:53.078Z,6.87
2018-08-08T16:58:22.709Z,16.63
2018-08-08T17:00:52.494Z,8.10
2018-08-08T17:03:22.124Z,18.77
2018-08-08T17:05:51.715Z,11.80
2018-08-08T17:08:21.342Z,11.47
2018-08-08T17:10:50.960Z,13.93
2018-08-08T17:13:20.593Z,12.40
2018-08-08T17:15:50.257Z,8.00
2018-08-08T17:18:19.885Z,12.93
2018-08-08T17:20:49.529Z,12.83
2018-08-08T17:23:19.193Z,21.47
2018-08-08T17:25:48.921Z,10.37
2018-08-08T17:28:18.733Z,9.80
2018-08-08T17:30:48.557Z,15.37
2018-08-08T17:33:18.227Z,6.00
2018-08-08T17:35:47.861Z,9.73
2018-08-08T17:38:17.575Z,6.00
2018-08-08T17:40:47.301Z,15.50
2018-08-08T17:43:17.266Z,8.43
2018-08-08T17:45:46.789Z,9.47
2018-08-08T17:48:16.426Z,18.53
2018-08-08T17:50:46.126Z,23.23
2018-08-08T17:53:16.110Z,11.80
2018-08-08T17:55:45.778Z,12.43
2018-08-08T17:58:15.460Z,11.73
2018-08-08T18:00:45.248Z,12.27
2018-08-08T18:03:14.864Z,12.13
2018-08-08T18:05:44.552Z,15.97
2018-08-08T18:08:20.126Z,11.33
2018-08-08T18:10:51.082Z,9.90
2018-08-08T18:13:20.785Z,15.73
2018-08-08T18:15:50.863Z,41.07
2018-08-08T18:18:20.542Z,18.67
2018-08-08T18:20:50.228Z,33.53
2018-08-08T18:23:20.212Z,19.40
2018-08-08T18:25:49.800Z,17.20
2018-08-08T18:28:19.471Z,33.13
2018-08-08T18:30:49.136Z,14.10
2018-08-08T18:33:18.721Z,18.53
2018-08-08T18:35:48.387Z,21.60
2018-08-08T18:38:18.267Z,17.40
2018-08-08T18:40:48.174Z,6.60
2018-08-08T18:43:17.813Z,14.37
2018-08-08T18:45:47.489Z,11.43
2018-08-08T18:48:17.117Z,24.40
2018-08-08T18:50:46.852Z,7.43
2018-08-08T18:53:16.617Z,7.70
2018-08-08T18:55:46.319Z,6.90
2018-08-08T18:58:15.978Z,18.77
2018-08-08T19:00:45.761Z,13.67
2018-08-08T19:03:15.385Z,11.93
2018-08-08T19:05:45.096Z,8.40
2018-08-08T19:08:15.081Z,6.80
2018-08-08T19:10:44.736Z,12.60
2018-08-08T19:13:14.467Z,14.43
2018-08-08T19:15:44.142Z,18.13
2018-08-08T19:18:13.987Z,15.73
2018-08-08T19:20:43.631Z,30.67
2018-08-08T19:23:13.302Z,37.67
2018-08-08T19:25:43.104Z,12.60
2018-08-08T19:28:12.798Z,20.07
2018-08-08T19:30:42.801Z,16.13
2018-08-08T19:33:12.510Z,16.53
2018-08-08T19:35:42.800Z,16.83
2018-08-08T19:38:12.513Z,18.97
2018-08-08T19:40:42.122Z,23.57
2018-08-08T19:43:11.856Z,30.73
2018-08-08T19:45:41.518Z,19.77
2018-08-08T19:48:11.121Z,31.70
2018-08-08T19:50:57.320Z,12.57
2018-08-08T19:53:27.891Z,20.97
2018-08-08T19:55:57.507Z,15.23
2018-08-08T19:58:27.142Z,19.77
2018-08-08T20:00:56.807Z,13.00
2018-08-08T20:03:26.388Z,27.40
2018-08-08T20:05:56.335Z,15.70
2018-08-08T20:08:26.756Z,11.47
2018-08-08T20:10:57.330Z,19.17
2018-08-08T20:13:27.157Z,11.10
2018-08-08T20:15:58.295Z,9.77
2018-08-08T20:18:27.937Z,18.17
2018-08-08T20:20:58.095Z,29.53
2018-08-08T20:23:27.668Z,17.60
2018-08-08T20:25:57.307Z,18.70
2018-08-08T20:28:26.890Z,11.07
2018-08-08T20:30:56.838Z,21.43
2018-08-08T20:33:26.474Z,25.33
2018-08-08T20:35:56.104Z,25.10
2018-08-08T20:38:25.771Z,20.00
2018-08-08T20:40:55.425Z,14.20
2018-08-08T20:43:25.027Z,28.33
2018-08-08T20:45:54.911Z,11.33
2018-08-08T20:48:24.558Z,26.43
2018-08-08T20:50:54.206Z,23.43
2018-08-08T20:53:23.849Z,22.00
2018-08-08T20:55:53.445Z,37.93
2018-08-08T20:58:23.051Z,39.40
2018-08-08T21:00:52.667Z,12.93
2018-08-08T21:03:22.259Z,20.60
2018-08-08T21:05:51.897Z,26.83
2018-08-08T21:08:21.533Z,26.33
2018-08-08T21:10:51.159Z,20.07
2018-08-08T21:13:20.762Z,24.03
2018-08-08T21:15:50.392Z,30.80
2018-08-08T21:18:20.268Z,17.27
2018-08-08T21:20:49.948Z,18.00
2018-08-08T21:23:19.537Z,16.40
2018-08-08T21:25:49.145Z,14.07
2018-08-08T21:28:18.793Z,25.07
2018-08-08T21:30:48.437Z,35.73
2018-08-08T21:33:18.057Z,56.23
2018-08-08T21:35:47.818Z,42.70
2018-08-08T21:38:17.507Z,28.70
2018-08-08T21:40:47.085Z,42.63
2018-08-08T21:43:16.778Z,26.10
2018-08-08T21:45:46.461Z,26.30
2018-08-08T21:48:16.067Z,34.53
2018-08-08T21:50:45.649Z,28.70
2018-08-08T21:53:17.841Z,33.70
2018-08-08T21:56:04.446Z,23.27
2018-08-08T21:58:50.989Z,20.77
2018-08-08T22:01:37.434Z,22.37
2018-08-08T22:04:24.083Z,20.87
2018-08-08T22:07:10.660Z,26.20
2018-08-08T22:11:53.565Z,23.73
2018-08-08T22:14:40.206Z,26.43
2018-08-08T22:17:26.509Z,20.67
2018-08-08T22:19:56.176Z,25.50
2018-08-08T22:22:25.791Z,20.07
2018-08-08T22:24:55.443Z,19.57
2018-08-08T22:27:25.042Z,21.63
2018-08-08T22:29:54.635Z,18.50
2018-08-08T22:32:24.292Z,15.73
2018-08-08T22:34:53.998Z,24.73
2018-08-08T22:37:23.570Z,15.50
2018-08-08T22:39:53.269Z,18.47
2018-08-08T22:42:22.842Z,11.50
2018-08-08T22:44:52.654Z,15.50
2018-08-08T22:47:22.396Z,20.63
2018-08-08T22:49:51.987Z,33.50
2018-08-08T22:52:21.574Z,18.57
2018-08-08T22:54:51.250Z,22.63
2018-08-08T22:57:20.827Z,17.40
2018-08-08T22:59:50.404Z,12.37
2018-08-08T23:02:20.045Z,22.07
2018-08-08T23:04:49.601Z,13.43
2018-08-08T23:07:19.238Z,17.23
2018-08-08T23:09:48.828Z,25.70
2018-08-08T23:12:18.474Z,16.13
2018-08-08T23:14:48.049Z,27.30
2018-08-08T23:17:17.649Z,26.77
2018-08-08T23:19:47.310Z,16.27
2018-08-08T23:22:33.936Z,14.40
2018-08-08T23:25:03.565Z,22.73
2018-08-08T23:27:33.270Z,32.53
2018-08-08T23:30:02.955Z,28.60
2018-08-08T23:32:32.562Z,15.50
2018-08-08T23:35:02.167Z,27.47
2018-08-08T23:37:31.776Z,15.27
2018-08-08T23:40:01.390Z,14.67
2018-08-08T23:42:31.000Z,20.57
2018-08-08T23:45:00.664Z,29.10
2018-08-08T23:47:30.241Z,22.40
2018-08-08T23:49:59.931Z,19.37
2018-08-08T23:52:29.825Z,21.00
2018-08-08T23:54:59.424Z,13.23
2018-08-08T23:57:29.001Z,20.13
2018-08-08T23:59:58.605Z,26.37
